Time;durP1;ratioP1;P1;durP2;ratioP2;P2;SDS_P1;SDS_P2;PMS_P1;PMS_P2;Temp;Humidity;BMP_temperature;BMP_pressure;BME280_temperature;BME280_humidity;BME280_pressure;Samples;Min_cycle;Max_cycle;Signal;HPM_P1;HPM_P2
2021/09/12 00:00:47;;;;;;;11.35;2.15;;;;;;;;;;4426711;32;20285;-55
2021/09/12 00:03:12;;;;;;;6.32;2.00;;;;;;;;;;4432566;32;20300;-56
2021/09/12 00:05:37;;;;;;;4.62;2.80;;;;;;;;;;4435421;32;20256;-56
2021/09/12 00:08:03;;;;;;;3.15;1.83;;;;;;;;;;4436354;32;20318;-56
2021/09/12 00:10:29;;;;;;;6.53;1.90;;;;;;;;;;4421644;32;20305;-55
2021/09/12 00:12:56;;;;;;;4.43;2.05;;;;;;;;;;4436257;32;20260;-55
2021/09/12 00:15:23;;;;;;;7.12;1.92;;;;;;;;;;4435894;32;20572;-55
2021/09/12 00:17:48;;;;;;;2.28;1.83;;;;;;;;;;4436144;32;20237;-55
2021/09/12 00:20:14;;;;;;;2.58;1.62;;;;;;;;;;4436184;32;20240;-56
2021/09/12 00:22:40;;;;;;;4.97;2.33;;;;;;;;;;4436186;32;20310;-56
2021/09/12 00:25:06;;;;;;;6.03;2.03;;;;;;;;;;4435405;32;20305;-56
2021/09/12 00:27:32;;;;;;;3.40;2.05;;;;;;;;;;4421141;32;20804;-56
2021/09/12 00:29:58;;;;;;;3.45;2.30;;;;;;;;;;4435850;32;20233;-57
2021/09/12 00:32:24;;;;;;;5.68;2.25;;;;;;;;;;4431457;32;20292;-58
2021/09/12 00:34:49;;;;;;;2.65;2.03;;;;;;;;;;4420595;32;20257;-56
2021/09/12 00:37:15;;;;;;;3.78;2.33;;;;;;;;;;4420415;32;20667;-55
2021/09/12 00:39:40;;;;;;;9.00;1.75;;;;;;;;;;4418719;32;20245;-56
2021/09/12 00:42:06;;;;;;;6.00;2.17;;;;;;;;;;4420267;32;20262;-56
2021/09/12 00:44:31;;;;;;;4.47;2.47;;;;;;;;;;4419001;32;20271;-56
2021/09/12 00:47:07;;;;;;;3.22;2.12;;;;;;;;;;4420077;32;20276;-56
2021/09/12 00:49:33;;;;;;;4.30;2.00;;;;;;;;;;4420188;32;20285;-56
2021/09/12 00:52:00;;;;;;;4.10;1.90;;;;;;;;;;4420590;32;20228;-55
2021/09/12 00:54:26;;;;;;;5.97;2.42;;;;;;;;;;4419822;32;20228;-55
2021/09/12 00:56:52;;;;;;;5.90;2.35;;;;;;;;;;4419888;32;20237;-56
2021/09/12 00:59:18;;;;;;;3.37;2.28;;;;;;;;;;4420463;32;20531;-55
2021/09/12 01:01:44;;;;;;;3.50;2.35;;;;;;;;;;4435212;32;20718;-55
2021/09/12 01:04:10;;;;;;;3.08;2.33;;;;;;;;;;4435160;32;20283;-56
2021/09/12 01:06:35;;;;;;;4.05;2.42;;;;;;;;;;4435147;32;20283;-56
2021/09/12 01:09:02;;;;;;;3.70;2.20;;;;;;;;;;4421055;32;20342;-55
2021/09/12 01:11:28;;;;;;;3.25;1.77;;;;;;;;;;4435076;32;20212;-56
2021/09/12 01:13:53;;;;;;;3.95;2.12;;;;;;;;;;4435144;32;20303;-56
2021/09/12 01:16:20;;;;;;;2.85;1.98;;;;;;;;;;4420888;32;20539;-57
2021/09/12 01:18:47;;;;;;;3.20;1.60;;;;;;;;;;4435125;32;20284;-55
2021/09/12 01:21:20;;;;;;;2.37;1.70;;;;;;;;;;4434919;32;20270;-55
2021/09/12 01:23:47;;;;;;;2.33;1.90;;;;;;;;;;4420860;32;20236;-56
2021/09/12 01:26:12;;;;;;;4.45;2.83;;;;;;;;;;4434201;32;20239;-56
2021/09/12 01:28:39;;;;;;;5.28;3.08;;;;;;;;;;4434879;32;20300;-55
2021/09/12 01:31:05;;;;;;;10.02;4.95;;;;;;;;;;4435101;32;20247;-55
2021/09/12 01:33:31;;;;;;;10.48;7.07;;;;;;;;;;4423184;32;20276;-56
2021/09/12 01:35:56;;;;;;;13.75;7.70;;;;;;;;;;4419353;32;20341;-55
2021/09/12 01:38:21;;;;;;;8.25;5.57;;;;;;;;;;4419409;32;20276;-55
2021/09/12 01:40:47;;;;;;;5.47;3.62;;;;;;;;;;4419470;32;20265;-56
2021/09/12 01:43:12;;;;;;;5.50;3.25;;;;;;;;;;4420232;32;20369;-55
2021/09/12 01:45:38;;;;;;;4.43;2.28;;;;;;;;;;4418352;32;20217;-56
2021/09/12 01:48:04;;;;;;;5.45;2.53;;;;;;;;;;4419453;32;20280;-56
2021/09/12 01:50:30;;;;;;;9.40;3.22;;;;;;;;;;4423360;32;20365;-56
2021/09/12 01:52:56;;;;;;;7.60;4.03;;;;;;;;;;4434368;32;20267;-56
2021/09/12 01:55:22;;;;;;;5.00;3.12;;;;;;;;;;4434143;32;20220;-55
2021/09/12 01:57:47;;;;;;;5.25;2.97;;;;;;;;;;4434437;32;20348;-55
2021/09/12 02:00:13;;;;;;;3.50;2.17;;;;;;;;;;4433334;32;20648;-55
2021/09/12 02:02:39;;;;;;;4.93;2.53;;;;;;;;;;4433731;32;20299;-56
2021/09/12 02:05:06;;;;;;;6.20;2.72;;;;;;;;;;4434217;32;20534;-55
2021/09/12 02:07:32;;;;;;;7.25;3.28;;;;;;;;;;4434198;32;20704;-56
2021/09/12 02:09:58;;;;;;;5.10;2.67;;;;;;;;;;4434064;32;20715;-55
2021/09/12 02:12:23;;;;;;;2.65;1.85;;;;;;;;;;4434398;32;20291;-55
2021/09/12 02:14:49;;;;;;;3.10;2.00;;;;;;;;;;4433509;32;20828;-55
2021/09/12 02:17:15;;;;;;;7.18;2.58;;;;;;;;;;4420953;32;20221;-55
2021/09/12 02:19:40;;;;;;;3.87;2.22;;;;;;;;;;4419008;32;20534;-55
2021/09/12 02:22:07;;;;;;;4.53;1.83;;;;;;;;;;4419589;32;20388;-55
2021/09/12 02:24:33;;;;;;;6.60;2.25;;;;;;;;;;4419301;32;20386;-55
2021/09/12 02:26:59;;;;;;;4.18;2.65;;;;;;;;;;4432931;32;20515;-56
2021/09/12 02:29:24;;;;;;;2.75;2.08;;;;;;;;;;4433533;32;20520;-55
2021/09/12 02:31:50;;;;;;;7.18;2.40;;;;;;;;;;4431069;32;20283;-56
2021/09/12 02:34:16;;;;;;;3.47;2.45;;;;;;;;;;4433347;32;20236;-55
2021/09/12 02:36:41;;;;;;;3.90;2.35;;;;;;;;;;4433393;32;20542;-56
2021/09/12 02:39:07;;;;;;;3.95;1.95;;;;;;;;;;4433377;32;20275;-55
2021/09/12 02:41:32;;;;;;;3.03;2.10;;;;;;;;;;4433278;32;20236;-55
2021/09/12 02:43:58;;;;;;;4.97;2.80;;;;;;;;;;4419957;32;20650;-55
2021/09/12 02:46:24;;;;;;;6.00;2.35;;;;;;;;;;4433682;32;20635;-55
2021/09/12 02:48:49;;;;;;;3.53;2.40;;;;;;;;;;4432030;32;20228;-56
2021/09/12 02:51:15;;;;;;;4.45;2.92;;;;;;;;;;4431085;32;20308;-55
2021/09/12 02:53:40;;;;;;;5.90;2.97;;;;;;;;;;4432342;32;20287;-55
2021/09/12 02:56:06;;;;;;;6.28;3.42;;;;;;;;;;4432283;32;20688;-55
2021/09/12 02:58:31;;;;;;;5.93;3.15;;;;;;;;;;4419464;32;20303;-55
2021/09/12 03:00:57;;;;;;;3.33;2.25;;;;;;;;;;4433221;32;20363;-56
2021/09/12 03:03:22;;;;;;;9.30;3.50;;;;;;;;;;4433412;32;20284;-55
2021/09/12 03:05:48;;;;;;;2.60;1.92;;;;;;;;;;4432165;32;20259;-55
2021/09/12 03:08:13;;;;;;;3.05;2.15;;;;;;;;;;4431258;32;20346;-55
2021/09/12 03:10:38;;;;;;;3.78;2.60;;;;;;;;;;4431562;32;20290;-56
2021/09/12 03:13:04;;;;;;;3.03;2.12;;;;;;;;;;4432329;32;20212;-53
2021/09/12 03:15:30;;;;;;;8.55;2.70;;;;;;;;;;4432533;32;20639;-56
2021/09/12 03:17:55;;;;;;;3.08;2.50;;;;;;;;;;4432774;32;20353;-58
2021/09/12 03:20:21;;;;;;;7.57;3.45;;;;;;;;;;4433420;32;20255;-55
2021/09/12 03:22:47;;;;;;;4.10;2.78;;;;;;;;;;4431911;32;20324;-56
2021/09/12 03:25:12;;;;;;;5.22;2.28;;;;;;;;;;4429244;32;20308;-56
2021/09/12 03:27:38;;;;;;;3.97;2.50;;;;;;;;;;4413440;32;20349;-56
2021/09/12 03:30:04;;;;;;;5.18;2.90;;;;;;;;;;4427795;32;20323;-56
2021/09/12 03:32:30;;;;;;;5.65;2.70;;;;;;;;;;4413918;32;20818;-56
2021/09/12 03:34:55;;;;;;;5.07;2.75;;;;;;;;;;4427889;32;20305;-56
2021/09/12 03:37:21;;;;;;;4.20;2.35;;;;;;;;;;4426596;32;20692;-56
2021/09/12 03:39:46;;;;;;;4.20;2.45;;;;;;;;;;4430325;32;20600;-56
2021/09/12 03:42:12;;;;;;;8.88;2.80;;;;;;;;;;4417161;32;20662;-56
2021/09/12 03:44:37;;;;;;;4.60;2.90;;;;;;;;;;4430783;32;20263;-56
2021/09/12 03:47:03;;;;;;;4.70;2.37;;;;;;;;;;4430623;32;20295;-55
2021/09/12 03:49:28;;;;;;;4.85;3.20;;;;;;;;;;4430688;32;20336;-56
2021/09/12 03:51:54;;;;;;;7.07;3.40;;;;;;;;;;4432696;32;20240;-56
2021/09/12 03:54:19;;;;;;;6.90;5.07;;;;;;;;;;4432695;32;20694;-56
2021/09/12 03:56:44;;;;;;;8.18;4.50;;;;;;;;;;4432769;32;20604;-56
2021/09/12 03:59:10;;;;;;;7.47;4.45;;;;;;;;;;4432664;32;20359;-55
2021/09/12 04:01:35;;;;;;;8.18;2.95;;;;;;;;;;4432615;32;20220;-56
2021/09/12 04:04:01;;;;;;;5.70;2.40;;;;;;;;;;4432654;32;20287;-55
2021/09/12 04:06:26;;;;;;;3.62;2.25;;;;;;;;;;4432718;32;20590;-56
2021/09/12 04:08:54;;;;;;;4.22;2.62;;;;;;;;;;4418620;32;20303;-57
2021/09/12 04:11:19;;;;;;;5.90;2.25;;;;;;;;;;4432736;32;20612;-56
2021/09/12 04:13:45;;;;;;;8.10;3.83;;;;;;;;;;4432858;32;20310;-55
2021/09/12 04:16:10;;;;;;;6.40;3.25;;;;;;;;;;4432730;32;20274;-56
2021/09/12 04:18:36;;;;;;;5.70;3.90;;;;;;;;;;4432973;32;20306;-56
2021/09/12 04:21:01;;;;;;;4.18;2.90;;;;;;;;;;4433031;32;20233;-56
2021/09/12 04:23:27;;;;;;;3.83;2.65;;;;;;;;;;4432634;32;20276;-56
2021/09/12 04:25:52;;;;;;;4.78;2.53;;;;;;;;;;4419126;32;20236;-57
2021/09/12 04:28:18;;;;;;;5.80;3.30;;;;;;;;;;4418539;32;20331;-56
2021/09/12 04:30:43;;;;;;;5.43;3.00;;;;;;;;;;4432844;32;20795;-55
2021/09/12 04:33:09;;;;;;;15.25;3.75;;;;;;;;;;4432729;32;20711;-57
2021/09/12 04:35:34;;;;;;;5.55;2.90;;;;;;;;;;4432537;32;20236;-55
2021/09/12 04:38:01;;;;;;;4.57;2.28;;;;;;;;;;4432268;32;20380;-55
2021/09/12 04:40:27;;;;;;;4.85;2.40;;;;;;;;;;4432412;32;20676;-55
2021/09/12 04:42:53;;;;;;;4.82;2.90;;;;;;;;;;4432258;32;20295;-56
2021/09/12 04:45:18;;;;;;;7.18;2.75;;;;;;;;;;4432539;32;20255;-55
2021/09/12 04:47:44;;;;;;;3.75;2.28;;;;;;;;;;4432347;32;20307;-56
2021/09/12 04:50:10;;;;;;;6.72;2.58;;;;;;;;;;4432367;32;20236;-55
2021/09/12 04:52:35;;;;;;;2.58;2.22;;;;;;;;;;4435002;32;20355;-56
2021/09/12 04:55:00;;;;;;;3.12;2.15;;;;;;;;;;4435276;32;20397;-54
2021/09/12 04:57:26;;;;;;;6.47;2.58;;;;;;;;;;4435039;32;20695;-55
2021/09/12 04:59:52;;;;;;;6.50;2.47;;;;;;;;;;4435059;32;20560;-56
2021/09/12 05:02:17;;;;;;;5.78;2.95;;;;;;;;;;4420559;32;20347;-55
2021/09/12 05:04:42;;;;;;;7.32;2.90;;;;;;;;;;4421149;32;20422;-55
2021/09/12 05:07:08;;;;;;;6.97;2.55;;;;;;;;;;4434910;32;20216;-55
2021/09/12 05:09:33;;;;;;;5.05;2.33;;;;;;;;;;4434931;32;20304;-54
2021/09/12 05:11:59;;;;;;;3.53;2.40;;;;;;;;;;4435201;32;20197;-55
2021/09/12 05:14:25;;;;;;;7.22;2.70;;;;;;;;;;4420704;32;20304;-55
2021/09/12 05:16:51;;;;;;;7.62;2.50;;;;;;;;;;4434730;32;20262;-55
2021/09/12 05:19:16;;;;;;;3.45;2.65;;;;;;;;;;4434694;32;20256;-56
2021/09/12 05:21:42;;;;;;;3.72;2.67;;;;;;;;;;4434903;32;20239;-55
2021/09/12 05:24:07;;;;;;;4.18;2.12;;;;;;;;;;4434845;32;20619;-55
2021/09/12 05:26:33;;;;;;;4.65;2.25;;;;;;;;;;4434517;32;20329;-55
2021/09/12 05:28:58;;;;;;;7.18;1.98;;;;;;;;;;4420490;32;20432;-55
2021/09/12 05:31:23;;;;;;;5.00;2.83;;;;;;;;;;4434453;32;20249;-56
2021/09/12 05:33:49;;;;;;;6.15;3.08;;;;;;;;;;4434427;32;20366;-55
2021/09/12 05:36:14;;;;;;;4.47;2.42;;;;;;;;;;4434287;32;20596;-55
2021/09/12 05:38:40;;;;;;;8.63;2.97;;;;;;;;;;4434429;32;20295;-55
2021/09/12 05:41:05;;;;;;;10.88;3.28;;;;;;;;;;4420863;32;20245;-56
2021/09/12 05:43:31;;;;;;;4.68;2.80;;;;;;;;;;4420501;32;20383;-56
2021/09/12 05:45:56;;;;;;;6.75;3.05;;;;;;;;;;4434871;32;20304;-56
2021/09/12 05:48:22;;;;;;;4.85;2.70;;;;;;;;;;4420608;32;20368;-56
2021/09/12 05:50:47;;;;;;;4.12;2.90;;;;;;;;;;4434262;32;20336;-55
2021/09/12 05:53:14;;;;;;;7.10;3.60;;;;;;;;;;4434569;32;20307;-56
2021/09/12 05:55:40;;;;;;;14.05;6.10;;;;;;;;;;4434469;32;20668;-56
2021/09/12 05:58:05;;;;;;;9.85;4.82;;;;;;;;;;4434441;32;20314;-57
2021/09/12 06:00:31;;;;;;;9.90;4.20;;;;;;;;;;4434333;32;20864;-56
2021/09/12 06:02:56;;;;;;;7.07;4.12;;;;;;;;;;4433589;32;20311;-55
2021/09/12 06:05:22;;;;;;;5.62;3.90;;;;;;;;;;4434355;32;20259;-56
2021/09/12 06:07:48;;;;;;;9.48;3.95;;;;;;;;;;4434373;32;20729;-56
2021/09/12 06:10:13;;;;;;;6.18;3.17;;;;;;;;;;4434013;32;20716;-56
2021/09/12 06:12:39;;;;;;;8.55;3.58;;;;;;;;;;4434153;32;20302;-56
2021/09/12 06:15:05;;;;;;;5.12;2.60;;;;;;;;;;4434221;32;20319;-56
2021/09/12 06:17:32;;;;;;;4.85;2.60;;;;;;;;;;4420353;32;20232;-56
2021/09/12 06:19:58;;;;;;;4.32;2.62;;;;;;;;;;4434382;32;20678;-56
2021/09/12 06:22:23;;;;;;;4.03;2.42;;;;;;;;;;4433941;32;20283;-55
2021/09/12 06:24:49;;;;;;;5.85;3.10;;;;;;;;;;4434212;32;20248;-55
2021/09/12 06:27:14;;;;;;;4.95;3.28;;;;;;;;;;4434009;32;20581;-55
2021/09/12 06:29:40;;;;;;;9.35;2.78;;;;;;;;;;4433895;32;20233;-55
2021/09/12 06:32:06;;;;;;;4.47;2.87;;;;;;;;;;4431168;32;20221;-55
2021/09/12 06:34:31;;;;;;;7.90;3.67;;;;;;;;;;4418754;32;20255;-56
2021/09/12 06:36:58;;;;;;;8.30;3.15;;;;;;;;;;4433823;32;20284;-55
2021/09/12 06:39:23;;;;;;;5.93;3.55;;;;;;;;;;4433841;32;20333;-55
2021/09/12 06:41:49;;;;;;;6.60;3.75;;;;;;;;;;4433692;32;20208;-55
2021/09/12 06:44:15;;;;;;;5.37;3.62;;;;;;;;;;4433795;32;20619;-55
2021/09/12 06:46:40;;;;;;;8.07;3.47;;;;;;;;;;4433761;32;20220;-55
2021/09/12 06:49:06;;;;;;;6.25;3.08;;;;;;;;;;4433720;32;20328;-55
2021/09/12 06:51:31;;;;;;;4.15;2.62;;;;;;;;;;4432970;32;20320;-56
2021/09/12 06:53:57;;;;;;;4.80;2.90;;;;;;;;;;4419180;32;20329;-56
2021/09/12 06:56:22;;;;;;;13.15;3.42;;;;;;;;;;4419284;32;20228;-56
2021/09/12 06:58:48;;;;;;;3.58;2.72;;;;;;;;;;4433611;32;20276;-57
2021/09/12 07:01:13;;;;;;;5.18;3.03;;;;;;;;;;4433215;32;20316;-56
2021/09/12 07:03:39;;;;;;;4.25;2.58;;;;;;;;;;4416848;32;20394;-56
2021/09/12 07:06:04;;;;;;;5.30;2.95;;;;;;;;;;4422836;32;20656;-56
2021/09/12 07:08:30;;;;;;;4.65;3.20;;;;;;;;;;4433473;32;20302;-56
2021/09/12 07:10:55;;;;;;;5.70;2.75;;;;;;;;;;4433433;32;20612;-56
2021/09/12 07:13:20;;;;;;;6.65;3.53;;;;;;;;;;4419093;32;20306;-56
2021/09/12 07:15:46;;;;;;;11.12;5.50;;;;;;;;;;4418924;32;20301;-56
2021/09/12 07:18:11;;;;;;;7.32;4.25;;;;;;;;;;4433635;32;20276;-56
2021/09/12 07:20:37;;;;;;;5.55;3.25;;;;;;;;;;4432915;32;20255;-57
2021/09/12 07:23:03;;;;;;;4.60;3.03;;;;;;;;;;4432406;32;20267;-56
2021/09/12 07:25:28;;;;;;;10.60;3.70;;;;;;;;;;4418286;32;20228;-57
2021/09/12 07:27:54;;;;;;;11.95;4.00;;;;;;;;;;4432771;32;20738;-57
2021/09/12 07:30:20;;;;;;;5.45;3.67;;;;;;;;;;4433100;32;20256;-56
2021/09/12 07:32:45;;;;;;;6.30;3.97;;;;;;;;;;4433092;32;20275;-57
2021/09/12 07:35:11;;;;;;;11.50;5.45;;;;;;;;;;4433072;32;20319;-56
2021/09/12 07:37:37;;;;;;;7.28;3.78;;;;;;;;;;4418667;32;20312;-57
2021/09/12 07:40:03;;;;;;;8.02;3.90;;;;;;;;;;4419067;32;20664;-56
2021/09/12 07:42:29;;;;;;;5.05;3.17;;;;;;;;;;4432537;32;20321;-56
2021/09/12 07:44:54;;;;;;;7.03;3.60;;;;;;;;;;4433389;32;20701;-57
2021/09/12 07:47:20;;;;;;;6.07;3.97;;;;;;;;;;4432766;32;20344;-59
2021/09/12 07:49:45;;;;;;;15.30;5.28;;;;;;;;;;4432845;32;20659;-56
2021/09/12 07:52:11;;;;;;;12.68;4.60;;;;;;;;;;4418516;32;20263;-56
2021/09/12 07:54:36;;;;;;;9.05;4.32;;;;;;;;;;4432857;32;20253;-55
2021/09/12 07:57:02;;;;;;;5.70;3.75;;;;;;;;;;4432833;32;20209;-56
2021/09/12 07:59:28;;;;;;;6.45;3.62;;;;;;;;;;4432990;32;20228;-56
2021/09/12 08:01:54;;;;;;;11.75;4.15;;;;;;;;;;4432663;32;20330;-56
2021/09/12 08:04:19;;;;;;;11.93;4.90;;;;;;;;;;4432771;32;20263;-55
2021/09/12 08:06:45;;;;;;;10.02;4.00;;;;;;;;;;4432395;32;20650;-56
2021/09/12 08:09:11;;;;;;;4.95;3.75;;;;;;;;;;4432793;32;20703;-56
2021/09/12 08:11:37;;;;;;;11.30;4.25;;;;;;;;;;4432577;32;20325;-56
2021/09/12 08:14:03;;;;;;;8.10;3.42;;;;;;;;;;4433108;32;20292;-56
2021/09/12 08:16:29;;;;;;;5.75;3.47;;;;;;;;;;4432651;32;20212;-56
2021/09/12 08:18:54;;;;;;;5.40;3.55;;;;;;;;;;4432833;32;20623;-56
2021/09/12 08:21:20;;;;;;;4.75;2.75;;;;;;;;;;4432334;32;20258;-56
2021/09/12 08:23:46;;;;;;;9.15;3.80;;;;;;;;;;4432985;32;20275;-57
2021/09/12 08:26:11;;;;;;;5.47;3.60;;;;;;;;;;4434325;32;20221;-56
2021/09/12 08:28:37;;;;;;;7.62;4.47;;;;;;;;;;4435560;32;20288;-56
2021/09/12 08:31:02;;;;;;;6.95;3.97;;;;;;;;;;4435276;32;20256;-56
2021/09/12 08:33:28;;;;;;;7.90;3.40;;;;;;;;;;4424286;32;20649;-56
2021/09/12 08:35:53;;;;;;;11.82;3.25;;;;;;;;;;4420365;32;20332;-56
2021/09/12 08:38:19;;;;;;;14.05;4.35;;;;;;;;;;4419714;32;20272;-56
2021/09/12 08:40:44;;;;;;;5.18;3.35;;;;;;;;;;4418940;32;20719;-56
2021/09/12 08:43:12;;;;;;;5.72;3.25;;;;;;;;;;4420351;32;20343;-56
2021/09/12 08:45:38;;;;;;;9.63;3.20;;;;;;;;;;4420423;32;20264;-57
2021/09/12 08:48:05;;;;;;;10.60;2.70;;;;;;;;;;4420125;32;20732;-56
2021/09/12 08:50:31;;;;;;;5.75;3.53;;;;;;;;;;4426579;32;20565;-56
2021/09/12 08:52:57;;;;;;;5.97;2.90;;;;;;;;;;4435167;32;20283;-56
2021/09/12 08:55:23;;;;;;;10.75;3.90;;;;;;;;;;4435469;32;20237;-56
2021/09/12 08:57:51;;;;;;;6.15;3.83;;;;;;;;;;4435500;32;20204;-56
2021/09/12 09:00:27;;;;;;;5.25;3.25;;;;;;;;;;4435513;32;20343;-57
2021/09/12 09:03:03;;;;;;;7.28;3.95;;;;;;;;;;4434809;32;20380;-57
2021/09/12 09:05:38;;;;;;;7.20;4.03;;;;;;;;;;4435094;32;20224;-56
2021/09/12 09:08:05;;;;;;;8.23;3.50;;;;;;;;;;4420776;32;20717;-56
2021/09/12 09:10:37;;;;;;;9.07;3.85;;;;;;;;;;4435225;32;20557;-56
2021/09/12 09:13:03;;;;;;;6.05;3.60;;;;;;;;;;4435539;32;20205;-57
2021/09/12 09:15:29;;;;;;;5.00;3.78;;;;;;;;;;4434959;32;20248;-56
2021/09/12 09:17:55;;;;;;;4.90;3.50;;;;;;;;;;4421041;32;20354;-57
2021/09/12 09:20:28;;;;;;;5.95;3.55;;;;;;;;;;4434969;32;20311;-56
2021/09/12 09:22:57;;;;;;;7.55;3.17;;;;;;;;;;4435038;32;20284;-57
2021/09/12 09:25:26;;;;;;;7.85;3.25;;;;;;;;;;4434796;32;20618;-57
2021/09/12 09:28:04;;;;;;;8.45;3.62;;;;;;;;;;4434662;32;20213;-57
2021/09/12 09:30:48;;;;;;;6.07;2.72;;;;;;;;;;4420632;32;20231;-56
2021/09/12 09:33:20;;;;;;;3.78;2.70;;;;;;;;;;4434476;32;20317;-57
2021/09/12 09:35:56;;;;;;;4.43;2.85;;;;;;;;;;4420661;32;20522;-56
2021/09/12 09:38:32;;;;;;;5.30;3.22;;;;;;;;;;4434614;32;20626;-57
2021/09/12 09:41:13;;;;;;;3.08;2.40;;;;;;;;;;4434699;32;20235;-57
2021/09/12 09:43:42;;;;;;;4.18;2.30;;;;;;;;;;4434685;32;20621;-57
2021/09/12 09:46:27;;;;;;;8.32;3.30;;;;;;;;;;4434470;32;20249;-56
2021/09/12 09:48:53;;;;;;;6.37;2.90;;;;;;;;;;4434829;32;20689;-57
2021/09/12 09:51:19;;;;;;;5.80;2.60;;;;;;;;;;4422093;32;20228;-57
2021/09/12 09:53:45;;;;;;;5.12;2.30;;;;;;;;;;4417888;32;20376;-57
2021/09/12 09:56:11;;;;;;;4.50;2.37;;;;;;;;;;4419210;32;20263;-57
2021/09/12 09:58:36;;;;;;;2.90;2.00;;;;;;;;;;4418948;32;20289;-57
2021/09/12 10:01:03;;;;;;;5.95;3.58;;;;;;;;;;4423206;32;20244;-57
2021/09/12 10:03:29;;;;;;;3.65;2.50;;;;;;;;;;4420349;32;20356;-57
2021/09/12 10:05:55;;;;;;;4.55;2.85;;;;;;;;;;4420220;32;20309;-57
2021/09/12 10:08:20;;;;;;;4.97;3.05;;;;;;;;;;4434712;32;20722;-57
2021/09/12 10:10:46;;;;;;;5.55;2.10;;;;;;;;;;4434492;32;20220;-57
2021/09/12 10:13:13;;;;;;;5.35;2.25;;;;;;;;;;4434725;32;20620;-57
2021/09/12 10:15:41;;;;;;;3.60;2.28;;;;;;;;;;4434045;32;20292;-57
2021/09/12 10:18:08;;;;;;;3.17;2.10;;;;;;;;;;4434236;32;20269;-57
2021/09/12 10:20:35;;;;;;;4.80;2.00;;;;;;;;;;4433971;32;20256;-57
2021/09/12 10:23:07;;;;;;;5.45;3.40;;;;;;;;;;4434459;32;20279;-57
2021/09/12 10:25:47;;;;;;;4.97;2.75;;;;;;;;;;4434218;32;20753;-57
2021/09/12 10:28:13;;;;;;;5.55;2.30;;;;;;;;;;4434104;32;20240;-57
2021/09/12 10:30:40;;;;;;;6.95;2.20;;;;;;;;;;4434160;32;20289;-57
2021/09/12 10:33:09;;;;;;;3.97;2.60;;;;;;;;;;4425308;32;20236;-57
2021/09/12 10:35:37;;;;;;;3.92;2.55;;;;;;;;;;4417277;32;20257;-57
2021/09/12 10:38:11;;;;;;;8.57;2.65;;;;;;;;;;4419125;32;20217;-56
2021/09/12 10:40:46;;;;;;;5.62;2.72;;;;;;;;;;4418879;32;20329;-57
2021/09/12 10:43:33;;;;;;;4.97;2.65;;;;;;;;;;4418347;32;20323;-58
2021/09/12 10:46:01;;;;;;;5.78;2.22;;;;;;;;;;4413231;32;20559;-57
2021/09/12 10:48:28;;;;;;;4.68;2.08;;;;;;;;;;4417844;32;20322;-57
2021/09/12 10:50:54;;;;;;;3.65;2.03;;;;;;;;;;4426790;32;20307;-57
2021/09/12 10:53:45;;;;;;;1.98;1.55;;;;;;;;;;4433321;32;20347;-58
2021/09/12 10:56:10;;;;;;;3.70;1.70;;;;;;;;;;4433548;32;20317;-56
2021/09/12 10:58:36;;;;;;;4.10;2.15;;;;;;;;;;4433853;32;20302;-56
2021/09/12 11:01:03;;;;;;;3.45;1.35;;;;;;;;;;4433913;32;20435;-56
2021/09/12 11:03:29;;;;;;;3.30;2.10;;;;;;;;;;4433090;32;20577;-57
2021/09/12 11:05:55;;;;;;;4.65;2.20;;;;;;;;;;4433557;32;20288;-56
2021/09/12 11:08:38;;;;;;;4.20;1.77;;;;;;;;;;4433567;32;20319;-56
2021/09/12 11:11:05;;;;;;;4.35;1.73;;;;;;;;;;4433579;32;20300;-56
2021/09/12 11:13:31;;;;;;;6.10;2.33;;;;;;;;;;4419439;32;20298;-57
2021/09/12 11:16:12;;;;;;;3.90;2.37;;;;;;;;;;4433016;32;20412;-57
2021/09/12 11:18:48;;;;;;;5.45;2.83;;;;;;;;;;4433327;32;20273;-57
2021/09/12 11:21:34;;;;;;;7.65;2.42;;;;;;;;;;4432871;32;20333;-56
2021/09/12 11:24:06;;;;;;;3.62;2.30;;;;;;;;;;4433352;32;20302;-56
2021/09/12 11:26:47;;;;;;;3.55;2.12;;;;;;;;;;4433365;32;20251;-56
2021/09/12 11:29:17;;;;;;;3.80;2.20;;;;;;;;;;4433516;32;20656;-56
2021/09/12 11:31:58;;;;;;;2.72;2.15;;;;;;;;;;4432885;32;20196;-56
2021/09/12 11:34:24;;;;;;;5.62;1.90;;;;;;;;;;4418234;32;20288;-56
2021/09/12 11:37:02;;;;;;;3.37;1.52;;;;;;;;;;4417826;32;20224;-56
2021/09/12 11:39:32;;;;;;;2.22;1.30;;;;;;;;;;4417941;32;20664;-56
2021/09/12 11:41:59;;;;;;;2.67;1.58;;;;;;;;;;4417669;32;20284;-56
2021/09/12 11:44:29;;;;;;;1.85;1.60;;;;;;;;;;4417723;32;20268;-56
2021/09/12 11:46:55;;;;;;;4.25;1.73;;;;;;;;;;4417808;32;20602;-56
2021/09/12 11:49:22;;;;;;;4.90;1.83;;;;;;;;;;4417774;32;20233;-57
2021/09/12 11:51:48;;;;;;;2.08;1.27;;;;;;;;;;4432081;32;20232;-57
2021/09/12 11:54:20;;;;;;;4.22;1.77;;;;;;;;;;4432991;32;20321;-56
2021/09/12 11:57:06;;;;;;;2.75;1.25;;;;;;;;;;4433020;32;20268;-56
2021/09/12 11:59:41;;;;;;;5.40;1.65;;;;;;;;;;4433321;32;20554;-57
2021/09/12 12:02:13;;;;;;;1.75;1.37;;;;;;;;;;4421888;32;20532;-57
2021/09/12 12:04:40;;;;;;;2.53;1.70;;;;;;;;;;4436283;32;20290;-56
2021/09/12 12:07:06;;;;;;;2.80;1.70;;;;;;;;;;4436369;32;20208;-56
2021/09/12 12:09:43;;;;;;;3.62;2.78;;;;;;;;;;4422390;32;20240;-57
2021/09/12 12:12:16;;;;;;;2.33;1.50;;;;;;;;;;4421970;32;20353;-57
2021/09/12 12:15:00;;;;;;;3.45;1.35;;;;;;;;;;4436521;32;20317;-56
2021/09/12 12:17:26;;;;;;;4.18;1.75;;;;;;;;;;4422169;32;20554;-57
2021/09/12 12:19:55;;;;;;;3.05;1.55;;;;;;;;;;4436320;32;20221;-57
2021/09/12 12:22:22;;;;;;;6.85;1.60;;;;;;;;;;4435927;32;20192;-56
2021/09/12 12:24:52;;;;;;;4.65;1.52;;;;;;;;;;4436151;32;20636;-56
2021/09/12 12:27:18;;;;;;;4.65;2.00;;;;;;;;;;4435970;32;20217;-56
2021/09/12 12:29:55;;;;;;;5.75;2.12;;;;;;;;;;4436300;32;20326;-57
2021/09/12 12:32:21;;;;;;;6.97;2.00;;;;;;;;;;4431749;32;20205;-57
2021/09/12 12:34:58;;;;;;;5.10;2.75;;;;;;;;;;4420769;32;20221;-57
2021/09/12 12:37:32;;;;;;;2.08;1.60;;;;;;;;;;4420845;32;20291;-56
2021/09/12 12:40:05;;;;;;;2.42;1.23;;;;;;;;;;4420866;32;20243;-56
2021/09/12 12:42:36;;;;;;;2.87;1.98;;;;;;;;;;4421789;32;20565;-57
2021/09/12 12:45:19;;;;;;;2.03;1.27;;;;;;;;;;4434248;32;20473;-57
2021/09/12 12:47:46;;;;;;;6.18;2.35;;;;;;;;;;4435407;32;20806;-56
2021/09/12 12:50:11;;;;;;;3.55;1.95;;;;;;;;;;4434423;32;20311;-57
2021/09/12 12:52:37;;;;;;;3.25;1.80;;;;;;;;;;4434740;32;20335;-57
2021/09/12 12:55:05;;;;;;;3.00;2.10;;;;;;;;;;4434592;32;20245;-56
2021/09/12 12:57:32;;;;;;;2.65;1.83;;;;;;;;;;4414617;32;20271;-57
2021/09/12 12:59:57;;;;;;;2.85;1.95;;;;;;;;;;4434725;32;20662;-57
2021/09/12 13:02:23;;;;;;;3.55;1.98;;;;;;;;;;4434772;32;20275;-57
2021/09/12 13:04:48;;;;;;;5.62;2.08;;;;;;;;;;4434919;32;20221;-56
2021/09/12 13:07:14;;;;;;;3.28;1.77;;;;;;;;;;4420423;32;20438;-57
2021/09/12 13:09:39;;;;;;;1.80;1.27;;;;;;;;;;4434848;32;20646;-57
2021/09/12 13:12:06;;;;;;;3.95;1.55;;;;;;;;;;4420335;32;20308;-57
2021/09/12 13:14:32;;;;;;;1.60;0.93;;;;;;;;;;4434685;32;20373;-56
2021/09/12 13:16:58;;;;;;;1.58;1.17;;;;;;;;;;4435006;32;20189;-56
2021/09/12 13:19:24;;;;;;;3.55;1.62;;;;;;;;;;4420534;32;20372;-56
2021/09/12 13:21:50;;;;;;;6.22;1.48;;;;;;;;;;4434903;32;20626;-58
2021/09/12 13:24:16;;;;;;;3.65;1.65;;;;;;;;;;4434517;32;20217;-57
2021/09/12 13:26:41;;;;;;;2.55;1.23;;;;;;;;;;4434884;32;20250;-56
2021/09/12 13:29:07;;;;;;;3.33;1.45;;;;;;;;;;4420713;32;20755;-57
2021/09/12 13:31:33;;;;;;;6.30;2.50;;;;;;;;;;4434689;32;20640;-57
2021/09/12 13:34:02;;;;;;;2.72;1.65;;;;;;;;;;4420482;32;20292;-58
2021/09/12 13:36:29;;;;;;;4.53;1.95;;;;;;;;;;4419752;32;20260;-56
2021/09/12 13:38:54;;;;;;;3.60;2.37;;;;;;;;;;4418004;32;20536;-57
2021/09/12 13:41:20;;;;;;;3.15;1.77;;;;;;;;;;4419379;32;20205;-57
2021/09/12 13:43:47;;;;;;;2.37;1.42;;;;;;;;;;4418258;32;20755;-57
2021/09/12 13:46:13;;;;;;;3.03;1.33;;;;;;;;;;4419833;32;20244;-57
2021/09/12 13:48:39;;;;;;;5.20;2.37;;;;;;;;;;4419290;32;20303;-57
2021/09/12 13:51:05;;;;;;;3.47;1.85;;;;;;;;;;4418455;32;20233;-57
2021/09/12 13:53:30;;;;;;;3.95;2.03;;;;;;;;;;4419013;32;20301;-62
2021/09/12 13:55:56;;;;;;;2.40;1.37;;;;;;;;;;4419183;32;20379;-57
2021/09/12 13:58:21;;;;;;;3.30;1.85;;;;;;;;;;4419054;32;20311;-58
2021/09/12 14:00:47;;;;;;;2.78;2.05;;;;;;;;;;4418234;32;20617;-58
2021/09/12 14:03:12;;;;;;;2.70;1.70;;;;;;;;;;4426738;32;20314;-57
2021/09/12 14:05:38;;;;;;;13.95;6.60;;;;;;;;;;4433989;32;20320;-58
2021/09/12 14:08:04;;;;;;;6.70;3.72;;;;;;;;;;4434825;32;20283;-57
2021/09/12 14:10:29;;;;;;;3.58;2.08;;;;;;;;;;4434096;32;20240;-57
2021/09/12 14:12:55;;;;;;;3.40;2.22;;;;;;;;;;4434492;32;20271;-57
2021/09/12 14:15:20;;;;;;;3.78;1.85;;;;;;;;;;4434009;32;20714;-57
2021/09/12 14:17:46;;;;;;;3.80;1.85;;;;;;;;;;4420355;32;20296;-57
2021/09/12 14:20:11;;;;;;;2.65;1.80;;;;;;;;;;4434068;32;20611;-56
2021/09/12 14:22:37;;;;;;;3.62;1.25;;;;;;;;;;4419429;32;20406;-57
2021/09/12 14:25:03;;;;;;;6.47;1.92;;;;;;;;;;4434044;32;20549;-57
2021/09/12 14:27:29;;;;;;;2.92;1.45;;;;;;;;;;4419993;32;20360;-57
2021/09/12 14:29:54;;;;;;;2.97;1.85;;;;;;;;;;4434196;32;20779;-56
2021/09/12 14:32:20;;;;;;;3.67;2.40;;;;;;;;;;4415674;32;20334;-57
2021/09/12 14:34:45;;;;;;;4.65;2.05;;;;;;;;;;4404491;32;20322;-56
2021/09/12 14:37:11;;;;;;;2.37;1.90;;;;;;;;;;4418343;32;20350;-56
2021/09/12 14:39:36;;;;;;;5.57;2.62;;;;;;;;;;4420223;32;20346;-58
2021/09/12 14:42:02;;;;;;;8.57;2.28;;;;;;;;;;4433413;32;20205;-58